sensor_id;sensor_type;location;lat;lon;timestamp;pressure;altitude;pressure_sealevel;temperature;humidity
20444;BME280;10381;53.730;10.010;2023-01-23T00:00:13;103186.50;;;1.26;100.00
20444;BME280;10381;53.730;10.010;2023-01-23T00:04:14;103188.25;;;1.27;100.00
20444;BME280;10381;53.730;10.010;2023-01-23T00:08:14;103195.28;;;1.19;100.00
20444;BME280;10381;53.730;10.010;2023-01-23T00:12:15;103193.72;;;1.00;100.00
20444;BME280;10381;53.730;10.010;2023-01-23T00:16:19;103186.09;;;0.77;100.00
20444;BME280;10381;53.730;10.010;2023-01-23T00:20:20;103192.38;;;0.56;100.00
20444;BME280;10381;53.730;10.010;2023-01-23T00:24:20;103195.75;;;0.70;100.00
20444;BME280;10381;53.730;10.010;2023-01-23T00:28:20;103199.06;;;0.86;100.00
20444;BME280;10381;53.730;10.010;2023-01-23T00:32:21;103202.44;;;0.99;100.00
20444;BME280;10381;53.730;10.010;2023-01-23T00:36:22;103203.22;;;1.05;100.00
20444;BME280;10381;53.730;10.010;2023-01-23T00:40:22;103200.63;;;1.07;100.00
20444;BME280;10381;53.730;10.010;2023-01-23T00:44:22;103196.25;;;1.09;100.00
20444;BME280;10381;53.730;10.010;2023-01-23T00:48:23;103200.53;;;1.15;100.00
20444;BME280;10381;53.730;10.010;2023-01-23T00:52:25;103194.41;;;1.19;100.00
20444;BME280;10381;53.730;10.010;2023-01-23T00:56:25;103208.28;;;1.22;100.00
20444;BME280;10381;53.730;10.010;2023-01-23T01:00:25;103210.88;;;1.25;100.00
20444;BME280;10381;53.730;10.010;2023-01-23T01:04:26;103214.38;;;1.24;100.00
20444;BME280;10381;53.730;10.010;2023-01-23T01:08:26;103210.91;;;1.22;100.00
20444;BME280;10381;53.730;10.010;2023-01-23T01:12:26;103217.91;;;1.19;100.00
20444;BME280;10381;53.730;10.010;2023-01-23T01:16:27;103220.47;;;1.22;100.00
20444;BME280;10381;53.730;10.010;2023-01-23T01:20:28;103216.16;;;1.18;100.00
20444;BME280;10381;53.730;10.010;2023-01-23T01:24:28;103214.44;;;1.18;100.00
20444;BME280;10381;53.730;10.010;2023-01-23T01:28:29;103217.91;;;1.19;100.00
20444;BME280;10381;53.730;10.010;2023-01-23T01:32:30;103230.09;;;1.18;100.00
20444;BME280;10381;53.730;10.010;2023-01-23T01:36:30;103231.81;;;1.19;100.00
20444;BME280;10381;53.730;10.010;2023-01-23T01:40:32;103240.50;;;1.21;100.00
20444;BME280;10381;53.730;10.010;2023-01-23T01:49:31;103241.41;;;1.20;100.00
20444;BME280;10381;53.730;10.010;2023-01-23T01:53:32;103241.41;;;1.19;100.00
20444;BME280;10381;53.730;10.010;2023-01-23T01:57:40;103244.03;;;1.17;100.00
20444;BME280;10381;53.730;10.010;2023-01-23T02:01:45;103246.66;;;1.16;100.00
20444;BME280;10381;53.730;10.010;2023-01-23T02:05:48;103246.69;;;1.13;100.00
20444;BME280;10381;53.730;10.010;2023-01-23T02:09:50;103252.88;;;1.04;100.00
20444;BME280;10381;53.730;10.010;2023-01-23T02:13:51;103255.47;;;1.02;100.00
20444;BME280;10381;53.730;10.010;2023-01-23T02:17:54;103256.41;;;0.97;100.00
20444;BME280;10381;53.730;10.010;2023-01-23T02:22:02;103255.50;;;0.99;100.00
20444;BME280;10381;53.730;10.010;2023-01-23T02:26:12;103248.53;;;1.00;100.00
20444;BME280;10381;53.730;10.010;2023-01-23T02:30:13;103261.59;;;0.98;100.00
20444;BME280;10381;53.730;10.010;2023-01-23T02:34:15;103255.56;;;0.95;100.00
20444;BME280;10381;53.730;10.010;2023-01-23T02:38:16;103257.31;;;0.94;100.00
20444;BME280;10381;53.730;10.010;2023-01-23T02:42:19;103259.94;;;0.90;100.00
20444;BME280;10381;53.730;10.010;2023-01-23T02:46:22;103260.84;;;0.87;100.00
20444;BME280;10381;53.730;10.010;2023-01-23T02:50:23;103253.09;;;0.76;100.00
20444;BME280;10381;53.730;10.010;2023-01-23T02:54:23;103258.25;;;0.79;100.00
20444;BME280;10381;53.730;10.010;2023-01-23T02:58:24;103258.25;;;0.82;100.00
20444;BME280;10381;53.730;10.010;2023-01-23T03:02:43;103263.50;;;0.79;100.00
20444;BME280;10381;53.730;10.010;2023-01-23T03:06:44;103261.78;;;0.78;100.00
20444;BME280;10381;53.730;10.010;2023-01-23T03:10:44;103250.44;;;0.81;100.00
20444;BME280;10381;53.730;10.010;2023-01-23T03:14:44;103257.41;;;0.79;100.00
20444;BME280;10381;53.730;10.010;2023-01-23T03:18:45;103273.97;;;0.76;100.00
20444;BME280;10381;53.730;10.010;2023-01-23T03:22:46;103273.94;;;0.81;100.00
20444;BME280;10381;53.730;10.010;2023-01-23T03:26:47;103285.19;;;0.86;100.00
20444;BME280;10381;53.730;10.010;2023-01-23T03:30:48;103292.13;;;0.89;100.00
20444;BME280;10381;53.730;10.010;2023-01-23T03:34:48;103296.66;;;0.65;100.00
20444;BME280;10381;53.730;10.010;2023-01-23T03:38:49;103293.25;;;0.54;100.00
20444;BME280;10381;53.730;10.010;2023-01-23T03:43:08;103293.31;;;0.45;100.00
20444;BME280;10381;53.730;10.010;2023-01-23T03:47:09;103300.22;;;0.46;100.00
20444;BME280;10381;53.730;10.010;2023-01-23T03:51:09;103304.59;;;0.48;100.00
20444;BME280;10381;53.730;10.010;2023-01-23T03:55:09;103301.06;;;0.54;100.00
20444;BME280;10381;53.730;10.010;2023-01-23T03:59:10;103299.34;;;0.56;100.00
20444;BME280;10381;53.730;10.010;2023-01-23T04:03:10;103306.25;;;0.63;100.00
20444;BME280;10381;53.730;10.010;2023-01-23T04:07:10;103302.72;;;0.69;100.00
20444;BME280;10381;53.730;10.010;2023-01-23T04:11:11;103301.81;;;0.71;100.00
20444;BME280;10381;53.730;10.010;2023-01-23T04:15:12;103312.22;;;0.74;100.00
20444;BME280;10381;53.730;10.010;2023-01-23T04:19:12;103311.38;;;0.75;100.00
20444;BME280;10381;53.730;10.010;2023-01-23T04:23:12;103319.22;;;0.75;100.00
20444;BME280;10381;53.730;10.010;2023-01-23T04:27:13;103324.38;;;0.81;100.00
20444;BME280;10381;53.730;10.010;2023-01-23T04:31:13;103328.72;;;0.81;100.00
20444;BME280;10381;53.730;10.010;2023-01-23T04:35:13;103325.19;;;0.87;100.00
20444;BME280;10381;53.730;10.010;2023-01-23T04:39:13;103325.22;;;0.85;100.00
20444;BME280;10381;53.730;10.010;2023-01-23T04:43:14;103330.41;;;0.87;100.00
20444;BME280;10381;53.730;10.010;2023-01-23T04:47:14;103332.19;;;0.84;100.00
20444;BME280;10381;53.730;10.010;2023-01-23T04:51:14;103332.22;;;0.80;100.00
20444;BME280;10381;53.730;10.010;2023-01-23T04:55:15;103323.53;;;0.76;100.00
20444;BME280;10381;53.730;10.010;2023-01-23T04:59:15;103322.66;;;0.74;100.00
20444;BME280;10381;53.730;10.010;2023-01-23T05:03:16;103329.66;;;0.75;100.00
20444;BME280;10381;53.730;10.010;2023-01-23T05:07:16;103328.72;;;0.79;100.00
20444;BME280;10381;53.730;10.010;2023-01-23T05:11:17;103325.25;;;0.80;100.00
20444;BME280;10381;53.730;10.010;2023-01-23T05:15:17;103333.13;;;0.76;100.00
20444;BME280;10381;53.730;10.010;2023-01-23T05:19:17;103339.19;;;0.76;100.00
20444;BME280;10381;53.730;10.010;2023-01-23T05:23:18;103344.44;;;0.75;100.00
20444;BME280;10381;53.730;10.010;2023-01-23T05:27:18;103343.53;;;0.74;100.00
20444;BME280;10381;53.730;10.010;2023-01-23T05:31:18;103353.16;;;0.71;100.00
20444;BME280;10381;53.730;10.010;2023-01-23T05:35:19;103352.25;;;0.73;100.00
20444;BME280;10381;53.730;10.010;2023-01-23T05:39:19;103353.16;;;0.72;100.00
20444;BME280;10381;53.730;10.010;2023-01-23T05:43:20;103355.75;;;0.75;100.00
20444;BME280;10381;53.730;10.010;2023-01-23T05:47:20;103366.16;;;0.77;100.00
20444;BME280;10381;53.730;10.010;2023-01-23T05:51:20;103370.47;;;0.79;100.00
20444;BME280;10381;53.730;10.010;2023-01-23T05:55:22;103373.97;;;0.77;100.00
20444;BME280;10381;53.730;10.010;2023-01-23T05:59:22;103374.00;;;0.75;100.00
20444;BME280;10381;53.730;10.010;2023-01-23T06:03:23;103383.53;;;0.79;100.00
20444;BME280;10381;53.730;10.010;2023-01-23T06:07:23;103381.81;;;0.78;100.00
20444;BME280;10381;53.730;10.010;2023-01-23T06:11:23;103375.72;;;0.78;100.00
20444;BME280;10381;53.730;10.010;2023-01-23T06:15:24;103380.97;;;0.75;100.00
20444;BME280;10381;53.730;10.010;2023-01-23T06:19:24;103381.84;;;0.72;100.00
20444;BME280;10381;53.730;10.010;2023-01-23T06:23:24;103383.56;;;0.76;100.00
20444;BME280;10381;53.730;10.010;2023-01-23T06:27:25;103395.75;;;0.76;100.00
20444;BME280;10381;53.730;10.010;2023-01-23T06:31:25;103387.91;;;0.74;100.00
20444;BME280;10381;53.730;10.010;2023-01-23T06:35:25;103387.06;;;0.72;100.00
20444;BME280;10381;53.730;10.010;2023-01-23T06:39:26;103390.53;;;0.71;100.00
20444;BME280;10381;53.730;10.010;2023-01-23T06:43:26;103387.94;;;0.73;100.00
20444;BME280;10381;53.730;10.010;2023-01-23T06:47:27;103395.72;;;0.74;100.00
20444;BME280;10381;53.730;10.010;2023-01-23T06:51:27;103392.28;;;0.72;100.00
20444;BME280;10381;53.730;10.010;2023-01-23T06:55:27;103411.41;;;0.73;100.00
20444;BME280;10381;53.730;10.010;2023-01-23T06:59:28;103406.16;;;0.79;100.00
20444;BME280;10381;53.730;10.010;2023-01-23T07:03:28;103413.97;;;0.80;100.00
20444;BME280;10381;53.730;10.010;2023-01-23T07:07:28;103415.72;;;0.80;100.00
20444;BME280;10381;53.730;10.010;2023-01-23T07:11:29;103418.34;;;0.78;100.00
20444;BME280;10381;53.730;10.010;2023-01-23T07:15:29;103422.66;;;0.85;100.00
20444;BME280;10381;53.730;10.010;2023-01-23T07:19:29;103431.38;;;0.84;100.00
20444;BME280;10381;53.730;10.010;2023-01-23T07:23:30;103429.66;;;0.82;100.00
20444;BME280;10381;53.730;10.010;2023-01-23T07:27:30;103428.75;;;0.81;100.00
20444;BME280;10381;53.730;10.010;2023-01-23T07:31:32;103433.13;;;0.82;100.00
20444;BME280;10381;53.730;10.010;2023-01-23T07:35:32;103435.72;;;0.82;100.00
20444;BME280;10381;53.730;10.010;2023-01-23T07:39:32;103444.41;;;0.84;100.00
20444;BME280;10381;53.730;10.010;2023-01-23T07:43:33;103438.34;;;0.82;100.00
20444;BME280;10381;53.730;10.010;2023-01-23T07:47:33;103444.38;;;0.91;100.00
20444;BME280;10381;53.730;10.010;2023-01-23T07:51:34;103451.31;;;0.95;100.00
20444;BME280;10381;53.730;10.010;2023-01-23T07:55:37;103467.78;;;1.04;100.00
20444;BME280;10381;53.730;10.010;2023-01-23T07:59:37;103459.94;;;1.09;100.00
20444;BME280;10381;53.730;10.010;2023-01-23T08:03:37;103467.78;;;1.09;100.00
20444;BME280;10381;53.730;10.010;2023-01-23T08:07:38;103481.66;;;1.13;100.00
20444;BME280;10381;53.730;10.010;2023-01-23T08:11:39;103486.91;;;1.16;100.00
20444;BME280;10381;53.730;10.010;2023-01-23T08:15:39;103485.97;;;1.20;100.00
20444;BME280;10381;53.730;10.010;2023-01-23T08:19:39;103490.38;;;1.12;100.00
20444;BME280;10381;53.730;10.010;2023-01-23T08:23:40;103493.00;;;1.13;100.00
20444;BME280;10381;53.730;10.010;2023-01-23T08:27:40;103499.91;;;1.17;100.00
20444;BME280;10381;53.730;10.010;2023-01-23T08:31:41;103497.22;;;1.30;100.00
20444;BME280;10381;53.730;10.010;2023-01-23T08:35:52;103499.81;;;1.36;100.00
20444;BME280;10381;53.730;10.010;2023-01-23T08:39:52;103495.44;;;1.39;100.00
20444;BME280;10381;53.730;10.010;2023-01-23T08:43:53;103504.09;;;1.47;100.00
20444;BME280;10381;53.730;10.010;2023-01-23T08:47:55;103507.56;;;1.53;100.00
20444;BME280;10381;53.730;10.010;2023-01-23T08:51:55;103511.94;;;1.46;100.00
20444;BME280;10381;53.730;10.010;2023-01-23T08:56:03;103508.47;;;1.44;100.00
20444;BME280;10381;53.730;10.010;2023-01-23T09:00:05;103511.06;;;1.50;100.00
20444;BME280;10381;53.730;10.010;2023-01-23T09:04:05;103519.72;;;1.54;100.00
20444;BME280;10381;53.730;10.010;2023-01-23T09:08:05;103520.66;;;1.45;100.00
20444;BME280;10381;53.730;10.010;2023-01-23T09:12:05;103507.59;;;1.42;100.00
20444;BME280;10381;53.730;10.010;2023-01-23T09:16:07;103502.38;;;1.45;100.00
20444;BME280;10381;53.730;10.010;2023-01-23T09:20:08;103504.84;;;1.63;100.00
20444;BME280;10381;53.730;10.010;2023-01-23T09:24:09;103504.81;;;1.71;100.00
20444;BME280;10381;53.730;10.010;2023-01-23T09:28:09;103507.44;;;1.71;100.00
20444;BME280;10381;53.730;10.010;2023-01-23T09:32:09;103525.69;;;1.76;100.00
20444;BME280;10381;53.730;10.010;2023-01-23T09:36:10;103523.03;;;1.83;100.00
20444;BME280;10381;53.730;10.010;2023-01-23T09:40:15;103517.66;;;1.99;100.00
20444;BME280;10381;53.730;10.010;2023-01-23T09:44:40;103512.34;;;2.08;100.00
20444;BME280;10381;53.730;10.010;2023-01-23T09:48:44;103510.56;;;2.11;100.00
20444;BME280;10381;53.730;10.010;2023-01-23T09:52:48;103516.63;;;2.17;100.00
20444;BME280;10381;53.730;10.010;2023-01-23T09:56:53;103500.00;;;2.21;100.00
20444;BME280;10381;53.730;10.010;2023-01-23T10:00:54;103500.84;;;2.26;100.00
20444;BME280;10381;53.730;10.010;2023-01-23T10:04:56;103488.69;;;2.22;100.00
20444;BME280;10381;53.730;10.010;2023-01-23T10:09:11;103492.03;;;2.36;100.00
20444;BME280;10381;53.730;10.010;2023-01-23T10:13:47;103488.47;;;2.42;100.00
20444;BME280;10381;53.730;10.010;2023-01-23T10:18:18;103462.09;;;2.59;100.00
20444;BME280;10381;53.730;10.010;2023-01-23T10:22:46;103462.97;;;2.59;100.00
20444;BME280;10381;53.730;10.010;2023-01-23T10:26:51;103462.84;;;2.70;100.00
20444;BME280;10381;53.730;10.010;2023-01-23T10:30:58;103477.44;;;2.88;100.00
20444;BME280;10381;53.730;10.010;2023-01-23T10:35:08;103474.44;;;3.18;100.00
20444;BME280;10381;53.730;10.010;2023-01-23T10:39:31;103480.16;;;3.45;100.00
20444;BME280;10381;53.730;10.010;2023-01-23T10:43:37;103477.53;;;3.45;100.00
20444;BME280;10381;53.730;10.010;2023-01-23T10:47:46;103474.13;;;3.38;100.00
20444;BME280;10381;53.730;10.010;2023-01-23T10:51:47;103480.00;;;3.54;100.00
20444;BME280;10381;53.730;10.010;2023-01-23T10:55:49;103477.19;;;3.67;100.00
20444;BME280;10381;53.730;10.010;2023-01-23T10:59:54;103480.38;;;3.84;100.00
20444;BME280;10381;53.730;10.010;2023-01-23T11:03:56;103472.34;;;3.39;100.00
20444;BME280;10381;53.730;10.010;2023-01-23T11:07:56;103474.44;;;3.73;100.00
20444;BME280;10381;53.730;10.010;2023-01-23T11:12:02;103474.06;;;3.97;100.00
20444;BME280;10381;53.730;10.010;2023-01-23T11:16:02;103478.25;;;4.08;100.00
20444;BME280;10381;53.730;10.010;2023-01-23T11:20:19;103485.50;;;3.92;100.00
20444;BME280;10381;53.730;10.010;2023-01-23T11:32:28;103482.63;;;3.53;100.00
20444;BME280;10381;53.730;10.010;2023-01-23T11:40:55;103482.09;;;3.31;100.00
20444;BME280;10381;53.730;10.010;2023-01-23T11:44:58;103487.22;;;3.38;100.00
20444;BME280;10381;53.730;10.010;2023-01-23T11:58:08;103499.59;;;3.30;100.00
20444;BME280;10381;53.730;10.010;2023-01-23T12:02:39;103498.72;;;3.30;100.00
20444;BME280;10381;53.730;10.010;2023-01-23T12:11:17;103495.03;;;2.80;100.00
20444;BME280;10381;53.730;10.010;2023-01-23T12:15:36;103501.06;;;2.83;100.00
20444;BME280;10381;53.730;10.010;2023-01-23T12:20:15;103493.91;;;2.97;100.00
20444;BME280;10381;53.730;10.010;2023-01-23T12:33:20;103495.44;;;3.12;100.00
20444;BME280;10381;53.730;10.010;2023-01-23T12:42:11;103484.28;;;2.99;100.00
20444;BME280;10381;53.730;10.010;2023-01-23T12:46:18;103487.81;;;2.95;100.00
20444;BME280;10381;53.730;10.010;2023-01-23T12:50:34;103490.75;;;2.72;100.00
20444;BME280;10381;53.730;10.010;2023-01-23T12:54:47;103489.03;;;2.67;100.00
20444;BME280;10381;53.730;10.010;2023-01-23T13:11:57;103487.22;;;2.73;100.00
20444;BME280;10381;53.730;10.010;2023-01-23T13:16:11;103492.47;;;2.75;100.00
20444;BME280;10381;53.730;10.010;2023-01-23T13:20:20;103492.19;;;2.95;100.00
20444;BME280;10381;53.730;10.010;2023-01-23T13:24:47;103501.13;;;2.82;100.00
20444;BME280;10381;53.730;10.010;2023-01-23T13:50:39;103526.69;;;2.56;100.00
20444;BME280;10381;53.730;10.010;2023-01-23T13:54:40;103522.41;;;2.51;100.00
20444;BME280;10381;53.730;10.010;2023-01-23T13:59:00;103523.22;;;2.54;100.00
20444;BME280;10381;53.730;10.010;2023-01-23T14:07:32;103517.25;;;2.42;100.00
20444;BME280;10381;53.730;10.010;2023-01-23T14:11:42;103518.16;;;2.39;100.00
20444;BME280;10381;53.730;10.010;2023-01-23T14:15:47;103510.31;;;2.41;100.00
20444;BME280;10381;53.730;10.010;2023-01-23T14:20:16;103510.25;;;2.44;100.00
20444;BME280;10381;53.730;10.010;2023-01-23T14:24:22;103512.91;;;2.39;100.00
20444;BME280;10381;53.730;10.010;2023-01-23T14:28:23;103517.16;;;2.49;100.00
20444;BME280;10381;53.730;10.010;2023-01-23T14:32:25;103518.09;;;2.44;100.00
20444;BME280;10381;53.730;10.010;2023-01-23T14:36:27;103518.16;;;2.41;100.00
20444;BME280;10381;53.730;10.010;2023-01-23T14:40:28;103519.81;;;2.46;100.00
20444;BME280;10381;53.730;10.010;2023-01-23T14:44:40;103520.63;;;2.53;100.00
20444;BME280;10381;53.730;10.010;2023-01-23T14:48:43;103509.34;;;2.46;100.00
20444;BME280;10381;53.730;10.010;2023-01-23T14:52:45;103500.59;;;2.50;100.00
20444;BME280;10381;53.730;10.010;2023-01-23T14:56:55;103497.13;;;2.48;100.00
20444;BME280;10381;53.730;10.010;2023-01-23T15:00:56;103498.94;;;2.43;100.00
20444;BME280;10381;53.730;10.010;2023-01-23T15:09:13;103491.91;;;2.45;100.00
20444;BME280;10381;53.730;10.010;2023-01-23T15:17:19;103478.00;;;2.43;100.00
20444;BME280;10381;53.730;10.010;2023-01-23T15:21:32;103483.22;;;2.43;100.00
20444;BME280;10381;53.730;10.010;2023-01-23T15:25:33;103470.16;;;2.43;100.00
20444;BME280;10381;53.730;10.010;2023-01-23T15:29:34;103467.59;;;2.35;100.00
20444;BME280;10381;53.730;10.010;2023-01-23T15:33:34;103470.28;;;2.29;100.00
20444;BME280;10381;53.730;10.010;2023-01-23T15:37:38;103481.66;;;2.27;100.00
20444;BME280;10381;53.730;10.010;2023-01-23T15:41:44;103476.38;;;2.28;100.00
20444;BME280;10381;53.730;10.010;2023-01-23T15:45:45;103487.75;;;2.27;100.00
20444;BME280;10381;53.730;10.010;2023-01-23T15:49:46;103502.63;;;2.22;100.00
20444;BME280;10381;53.730;10.010;2023-01-23T15:53:46;103499.16;;;2.22;100.00
20444;BME280;10381;53.730;10.010;2023-01-23T15:57:46;103500.88;;;2.23;100.00
20444;BME280;10381;53.730;10.010;2023-01-23T16:01:47;103503.47;;;2.24;100.00
20444;BME280;10381;53.730;10.010;2023-01-23T16:05:47;103510.47;;;2.22;100.00
20444;BME280;10381;53.730;10.010;2023-01-23T16:09:48;103506.13;;;2.20;100.00
20444;BME280;10381;53.730;10.010;2023-01-23T16:13:49;103510.56;;;2.15;100.00
20444;BME280;10381;53.730;10.010;2023-01-23T16:17:50;103503.59;;;2.12;100.00
20444;BME280;10381;53.730;10.010;2023-01-23T16:21:50;103515.00;;;2.03;100.00
20444;BME280;10381;53.730;10.010;2023-01-23T16:25:50;103510.69;;;1.95;100.00
20444;BME280;10381;53.730;10.010;2023-01-23T16:29:51;103519.41;;;1.97;100.00
20444;BME280;10381;53.730;10.010;2023-01-23T16:33:51;103521.16;;;1.96;100.00
20444;BME280;10381;53.730;10.010;2023-01-23T16:37:52;103522.03;;;1.97;100.00
20444;BME280;10381;53.730;10.010;2023-01-23T16:41:52;103531.59;;;1.99;100.00
20444;BME280;10381;53.730;10.010;2023-01-23T16:45:56;103527.28;;;1.95;100.00
20444;BME280;10381;53.730;10.010;2023-01-23T16:49:56;103530.78;;;1.89;100.00
20444;BME280;10381;53.730;10.010;2023-01-23T16:53:57;103543.00;;;1.89;100.00
20444;BME280;10381;53.730;10.010;2023-01-23T16:57:58;103539.50;;;1.93;100.00
20444;BME280;10381;53.730;10.010;2023-01-23T17:02:04;103542.97;;;1.95;100.00
20444;BME280;10381;53.730;10.010;2023-01-23T17:06:14;103549.03;;;1.97;100.00
20444;BME280;10381;53.730;10.010;2023-01-23T17:10:20;103556.88;;;1.99;100.00
20444;BME280;10381;53.730;10.010;2023-01-23T17:14:27;103550.78;;;2.00;100.00
20444;BME280;10381;53.730;10.010;2023-01-23T17:18:33;103552.53;;;1.96;100.00
20444;BME280;10381;53.730;10.010;2023-01-23T17:22:39;103562.13;;;1.96;100.00
20444;BME280;10381;53.730;10.010;2023-01-23T17:26:41;103562.09;;;1.97;100.00
20444;BME280;10381;53.730;10.010;2023-01-23T17:30:44;103567.41;;;1.89;100.00
20444;BME280;10381;53.730;10.010;2023-01-23T17:34:45;103557.84;;;1.87;100.00
20444;BME280;10381;53.730;10.010;2023-01-23T17:38:45;103564.81;;;1.85;100.00
20444;BME280;10381;53.730;10.010;2023-01-23T17:42:46;103572.66;;;1.85;100.00
20444;BME280;10381;53.730;10.010;2023-01-23T17:46:46;103579.63;;;1.86;100.00
20444;BME280;10381;53.730;10.010;2023-01-23T17:50:47;103570.06;;;1.83;100.00
20444;BME280;10381;53.730;10.010;2023-01-23T17:54:48;103571.78;;;1.84;100.00
20444;BME280;10381;53.730;10.010;2023-01-23T17:58:48;103571.75;;;1.89;100.00
20444;BME280;10381;53.730;10.010;2023-01-23T18:02:56;103580.50;;;1.88;100.00
20444;BME280;10381;53.730;10.010;2023-01-23T18:06:56;103573.50;;;1.88;100.00
20444;BME280;10381;53.730;10.010;2023-01-23T18:10:57;103580.50;;;1.88;100.00
20444;BME280;10381;53.730;10.010;2023-01-23T18:19:35;103586.59;;;1.88;100.00
20444;BME280;10381;53.730;10.010;2023-01-23T18:23:36;103582.22;;;1.89;100.00
20444;BME280;10381;53.730;10.010;2023-01-23T18:27:39;103591.78;;;1.93;100.00
20444;BME280;10381;53.730;10.010;2023-01-23T18:40:14;103593.50;;;1.96;100.00
20444;BME280;10381;53.730;10.010;2023-01-23T18:44:25;103596.13;;;1.96;100.00
20444;BME280;10381;53.730;10.010;2023-01-23T18:48:26;103596.19;;;1.88;100.00
20444;BME280;10381;53.730;10.010;2023-01-23T18:52:38;103592.72;;;1.83;100.00
20444;BME280;10381;53.730;10.010;2023-01-23T19:01:15;103598.00;;;1.77;100.00
20444;BME280;10381;53.730;10.010;2023-01-23T19:05:25;103607.56;;;1.81;100.00
20444;BME280;10381;53.730;10.010;2023-01-23T19:09:30;103595.31;;;1.84;100.00
20444;BME280;10381;53.730;10.010;2023-01-23T19:14:04;103609.25;;;1.88;100.00
20444;BME280;10381;53.730;10.010;2023-01-23T19:18:24;103602.25;;;1.90;100.00
20444;BME280;10381;53.730;10.010;2023-01-23T19:22:48;103607.47;;;1.93;100.00
20444;BME280;10381;53.730;10.010;2023-01-23T19:26:52;103611.84;;;1.91;100.00
20444;BME280;10381;53.730;10.010;2023-01-23T19:30:54;103606.63;;;1.92;100.00
20444;BME280;10381;53.730;10.010;2023-01-23T19:34:54;103607.44;;;1.96;100.00
20444;BME280;10381;53.730;10.010;2023-01-23T19:38:54;103597.88;;;1.92;100.00
20444;BME280;10381;53.730;10.010;2023-01-23T19:43:02;103583.91;;;1.95;100.00
20444;BME280;10381;53.730;10.010;2023-01-23T19:47:02;103584.78;;;1.97;100.00
20444;BME280;10381;53.730;10.010;2023-01-23T19:51:09;103584.81;;;1.95;100.00
20444;BME280;10381;53.730;10.010;2023-01-23T19:55:27;103592.63;;;1.97;100.00
20444;BME280;10381;53.730;10.010;2023-01-23T19:59:29;103590.00;;;1.98;100.00
20444;BME280;10381;53.730;10.010;2023-01-23T20:03:29;103594.34;;;1.99;100.00
20444;BME280;10381;53.730;10.010;2023-01-23T20:07:29;103599.59;;;1.96;100.00
20444;BME280;10381;53.730;10.010;2023-01-23T20:11:30;103603.06;;;1.98;100.00
20444;BME280;10381;53.730;10.010;2023-01-23T20:15:30;103607.41;;;1.99;100.00
20444;BME280;10381;53.730;10.010;2023-01-23T20:19:31;103602.19;;;1.99;100.00
20444;BME280;10381;53.730;10.010;2023-01-23T20:23:31;103600.47;;;1.97;100.00
20444;BME280;10381;53.730;10.010;2023-01-23T20:27:32;103608.31;;;2.00;100.00
20444;BME280;10381;53.730;10.010;2023-01-23T20:31:32;103610.06;;;1.98;100.00
20444;BME280;10381;53.730;10.010;2023-01-23T20:35:36;103604.78;;;1.99;100.00
20444;BME280;10381;53.730;10.010;2023-01-23T20:39:39;103603.94;;;2.00;100.00
20444;BME280;10381;53.730;10.010;2023-01-23T20:43:40;103603.94;;;2.00;100.00
20444;BME280;10381;53.730;10.010;2023-01-23T20:47:42;103603.94;;;1.99;100.00
20444;BME280;10381;53.730;10.010;2023-01-23T20:51:42;103604.81;;;1.95;100.00
20444;BME280;10381;53.730;10.010;2023-01-23T20:55:42;103609.19;;;1.94;100.00
20444;BME280;10381;53.730;10.010;2023-01-23T20:59:43;103606.63;;;1.91;100.00
20444;BME280;10381;53.730;10.010;2023-01-23T21:03:43;103611.81;;;1.94;100.00
20444;BME280;10381;53.730;10.010;2023-01-23T21:07:44;103610.97;;;1.87;100.00
20444;BME280;10381;53.730;10.010;2023-01-23T21:11:45;103618.84;;;1.84;100.00
20444;BME280;10381;53.730;10.010;2023-01-23T21:15:56;103617.97;;;1.87;100.00
20444;BME280;10381;53.730;10.010;2023-01-23T21:19:57;103624.06;;;1.86;100.00
20444;BME280;10381;53.730;10.010;2023-01-23T21:23:57;103617.97;;;1.84;100.00
20444;BME280;10381;53.730;10.010;2023-01-23T21:27:57;103609.25;;;1.85;100.00
20444;BME280;10381;53.730;10.010;2023-01-23T21:31:58;103618.81;;;1.89;100.00
20444;BME280;10381;53.730;10.010;2023-01-23T21:36:00;103628.38;;;1.91;100.00
20444;BME280;10381;53.730;10.010;2023-01-23T21:40:00;103624.03;;;1.92;100.00
20444;BME280;10381;53.730;10.010;2023-01-23T21:44:01;103628.38;;;1.90;100.00
20444;BME280;10381;53.730;10.010;2023-01-23T21:48:01;103633.63;;;1.93;100.00
20444;BME280;10381;53.730;10.010;2023-01-23T21:52:01;103634.47;;;1.95;100.00
20444;BME280;10381;53.730;10.010;2023-01-23T21:56:03;103632.72;;;1.94;100.00
20444;BME280;10381;53.730;10.010;2023-01-23T22:00:04;103635.34;;;1.94;100.00
20444;BME280;10381;53.730;10.010;2023-01-23T22:04:23;103644.06;;;1.93;100.00
20444;BME280;10381;53.730;10.010;2023-01-23T22:08:24;103651.91;;;1.91;100.00
20444;BME280;10381;53.730;10.010;2023-01-23T22:12:24;103653.69;;;1.88;100.00
20444;BME280;10381;53.730;10.010;2023-01-23T22:16:25;103657.19;;;1.85;100.00
20444;BME280;10381;53.730;10.010;2023-01-23T22:20:26;103661.53;;;1.85;100.00
20444;BME280;10381;53.730;10.010;2023-01-23T22:24:27;103667.69;;;1.79;100.00
20444;BME280;10381;53.730;10.010;2023-01-23T22:28:27;103658.94;;;1.83;100.00
20444;BME280;10381;53.730;10.010;2023-01-23T22:32:27;103651.09;;;1.88;100.00
20444;BME280;10381;53.730;10.010;2023-01-23T22:36:28;103644.97;;;1.89;100.00
20444;BME280;10381;53.730;10.010;2023-01-23T22:40:28;103636.22;;;1.90;100.00
20444;BME280;10381;53.730;10.010;2023-01-23T22:44:29;103637.13;;;1.87;100.00